• Join FlightAware (Why Join?)
  • Login
  • US Flag 
 
03:42PM EST


 

Airport Tracker/Info


-or-


 

Live Flight TrackerFlight Track Log ✈ N53NW ✈ 30-Aug-2013 ✈ KPTK - KSRQ

Flight Track Log - Related Links

Times and Time Zones

All times are in EDT time to prevent confusion due to time zone crossing. See the N53NW flight status page for this flight to view local times or setup timezone preferences in your user account.

Time Position Orientation Groundspeed Altitude Reporting Facility
EDT Latitude Longitude Course Direction KTS MPH feet Rate Location/Type
10:13AM 41.2058 -83.5189 204° Southwest 347 399 36,100  Level Indianapolis Center
10:14AM 41.1150 -83.5722 204° Southwest 354 407 36,800 660 Climbing Indianapolis Center
10:15AM 41.0103 -83.6328 204° Southwest 365 420 37,500 600 Climbing Indianapolis Center
10:16AM 40.9136 -83.6883 203° Southwest 378 435 38,100 540 Climbing Indianapolis Center
10:17AM 40.8144 -83.7458 204° Southwest 387 445 38,700 540 Climbing Indianapolis Center
10:18AM 40.7153 -83.8028 204° Southwest 390 449 39,300 600 Climbing Indianapolis Center
10:19AM 40.5925 -83.8717 203° Southwest 400 460 40,000 600 Climbing Indianapolis Center
10:20AM 40.4908 -83.9294 203° Southwest 400 460 40,600 540 Climbing Indianapolis Center
10:21AM 40.3883 -83.9867 203° Southwest 402 463 41,200 480 Climbing Indianapolis Center
10:22AM 40.2844 -84.0428 202° Southwest 403 464 41,700 480 Climbing Indianapolis Center
10:23AM 40.1697 -84.0631 188° South 419 482 42,300 540 Climbing Indianapolis Center
10:24AM 40.0336 -84.0864 187° South 415 478 42,900 300 Climbing Indianapolis Center
10:25AM 39.9172 -84.1056 191° South 422 486 43,000  Climbing Indianapolis Center
10:26AM 39.8000 -84.1256 187° South 426 490 43,000  Level Indianapolis Center
10:27AM 39.6836 -84.1439 187° South 425 489 43,000  Level Indianapolis Center
10:28AM 39.5692 -84.1628 187° South 420 483 43,000  Level Indianapolis Center
10:29AM 39.4344 -84.1594 179° South 409 471 43,000  Level Indianapolis Center
10:30AM 39.3211 -84.1514 177° South 411 473 43,000  Level Indianapolis Center
10:31AM 39.2061 -84.1422 176° South 415 478 43,000  Level Indianapolis Center
10:32AM 39.0903 -84.1333 177° South 419 482 43,000  Level Indianapolis Center
10:33AM 38.9733 -84.1247 177° South 423 487 43,000  Level Indianapolis Center
10:34AM 38.8561 -84.1161 177° South 423 487 43,000  Level Indianapolis Center
10:36AM 38.7139 -84.1033 176° South 427 491 43,000  Level Indianapolis Center
10:37AM 38.5933 -84.0961 177° South 423 487 43,000  Level Indianapolis Center
10:38AM 38.4772 -84.0867 176° South 419 482 43,000  Level Indianapolis Center
10:39AM 38.3628 -84.0792 177° South 412 474 43,000  Level Indianapolis Center
10:40AM 38.2519 -84.0700 176° South 402 463 43,000  Level Indianapolis Center
10:41AM 38.1403 -84.0619 177° South 404 465 43,000  Level Indianapolis Center
10:42AM 38.0106 -84.0525 177° South 401 461 43,000  Level Indianapolis Center
10:43AM 37.8992 -84.0447 177° South 403 464 43,000  Level Indianapolis Center
10:44AM 37.7883 -84.0364 177° South 402 463 43,000  Level Indianapolis Center
10:45AM 37.6775 -84.0264 176° South 400 460 43,000  Level Indianapolis Center
10:46AM 37.5656 -84.0189 177° South 404 465 43,000  Level Indianapolis Center
10:47AM 37.4361 -84.0081 176° South 401 461 43,000  Level Indianapolis Center
10:48AM 37.3242 -84.0003 177° South 402 463 43,000  Level Indianapolis Center
10:49AM 37.2125 -83.9919 177° South 404 465 43,000  Level Indianapolis Center
10:50AM 37.1003 -83.9836 177° South 405 466 43,000  Level Indianapolis Center
10:51AM 36.9881 -83.9744 176° South 405 466 43,000  Level Indianapolis Center
10:52AM 36.8558 -83.9656 177° South 407 468 43,000  Level Indianapolis Center
10:53AM 36.7433 -83.9567 176° South 406 467 43,000  Level Indianapolis Center
10:54AM 36.6300 -83.9478 176° South 408 470 43,000  Level Indianapolis Center
10:55AM 36.5164 -83.9400 177° South 407 468 43,000  Level Indianapolis Center
10:56AM 36.3894 -83.9294 176° South 408 470 43,000  Level Indianapolis Center
10:57AM 36.2753 -83.9211 177° South 408 470 43,000  Level Indianapolis Center
10:58AM 36.1617 -83.9133 177° South 407 468 43,000  Level Indianapolis Center
10:59AM 36.0667 -83.9078 177° South 405 466 43,000  Level Atlanta Center
11:00AM 35.9539 -83.8978 176° South 405 466 43,000  Level Atlanta Center
11:01AM 35.8453 -83.8747 170° South 405 466 43,000  Level Atlanta Center
11:02AM 35.7347 -83.8392 165° South 405 466 43,000  Level Atlanta Center
11:03AM 35.6242 -83.8011 164° South 412 474 43,000  Level Atlanta Center
11:04AM 35.5178 -83.7683 166° South 412 474 43,000  Level Atlanta Center
11:05AM 35.4111 -83.7306 164° South 407 468 43,000  Level Atlanta Center
11:06AM 35.3025 -83.6953 165° South 407 468 43,000  Level Atlanta Center
11:07AM 35.1939 -83.6625 166° South 407 468 43,000  Level Atlanta Center
11:08AM 35.0875 -83.6250 164° South 407 468 43,000  Level Atlanta Center
11:09AM 34.9789 -83.5900 165° South 401 461 43,000  Level Atlanta Center
11:10AM 34.8931 -83.5603 164° South 401 461 43,000  Level Atlanta Center
11:11AM 34.7742 -83.5228 165° South 395 455 43,000  Level Atlanta Center
11:12AM 34.6528 -83.4808 164° South 403 464 43,000  Level Atlanta Center
11:13AM 34.5442 -83.4436 164° South 403 464 43,000  Level Atlanta Center
11:14AM 34.4333 -83.4092 166° South 408 470 43,000  Level Atlanta Center
11:15AM 34.3247 -83.3772 166° South 408 470 43,000  Level Atlanta Center
11:16AM 34.2158 -83.3406 164° South 408 470 43,000  Level Atlanta Center
11:17AM 34.1050 -83.3061 166° South 408 470 43,000  Level Atlanta Center
11:18AM 33.9942 -83.2722 166° South 414 476 43,000  Level Atlanta Center
11:19AM 33.8833 -83.2356 165° South 414 476 43,000  Level Atlanta Center
11:20AM 33.7853 -83.2064 166° South 414 476 43,000  Level Atlanta Center
11:21AM 33.6742 -83.1700 165° South 414 476 43,000  Level Atlanta Center
11:22AM 33.5675 -83.1364 165° South 407 468 43,000  Level Atlanta Center
11:23AM 33.4589 -83.1025 165° South 412 474 43,000  Level Atlanta Center
11:24AM 33.3478 -83.0664 165° South 407 468 43,000  Level Atlanta Center
11:25AM 33.2264 -83.0306 166° South 407 468 43,000  Level Atlanta Center
11:26AM 33.1178 -82.9997 167° South 407 468 43,000  Level Atlanta Center
11:27AM 33.0089 -82.9636 164° South 412 474 43,000  Level Atlanta Center
11:28AM 32.9042 -82.9303 165° South 407 468 43,000  Level Atlanta Center
11:30AM 32.7136 -82.8728 166° South 415 478 43,000  Level Jacksonville Center
11:31AM 32.6050 -82.8358 164° South 410 472 43,000  Level Jacksonville Center
11:32AM 32.4964 -82.8014 165° South 410 472 43,000  Level Jacksonville Center
11:33AM 32.4025 -82.7719 165° South 405 466 43,000  Level Jacksonville Center
11:34AM 32.2939 -82.7378 165° South 400 460 43,000  Level Jacksonville Center
11:35AM 32.1747 -82.7036 166° South 400 460 43,000  Level Jacksonville Center
11:36AM 32.0642 -82.6694 165° South 400 460 43,000  Level Jacksonville Center
11:37AM 31.9553 -82.6331 164° South 400 460 43,000  Level Jacksonville Center
11:38AM 31.8489 -82.6014 166° South 400 460 43,000  Level Jacksonville Center
11:39AM 31.7339 -82.5822 172° South 400 460 43,000  Level Jacksonville Center
11:40AM 31.6211 -82.5656 173° South 405 466 43,000  Level Jacksonville Center
11:41AM 31.5083 -82.5467 172° South 410 472 43,000  Level Jacksonville Center
11:42AM 31.3978 -82.5300 173° South 410 472 43,000  Level Jacksonville Center
11:43AM 31.2869 -82.5183 175° South 410 472 43,000  Level Jacksonville Center
11:44AM 31.1719 -82.4992 172° South 410 472 43,000 -360 Level Jacksonville Center
11:45AM 31.0614 -82.4828 173° South 410 472 42,300 -960 Descending Jacksonville Center
11:46AM 30.9464 -82.4639 172° South 410 472 41,100 -1,200 Descending Jacksonville Center
11:47AM 30.8336 -82.4475 173° South 410 472 40,000 -600 Descending Jacksonville Center
11:48AM 30.7208 -82.4286 172° South 410 472 40,000  Level Jacksonville Center
11:49AM 30.6081 -82.4147 174° South 410 472 40,000  Level Jacksonville Center
11:50AM 30.4953 -82.3958 172° South 410 472 40,000 -180 Level Jacksonville Center
11:51AM 30.3844 -82.3675 168° South 410 472 39,700 -840 Descending Jacksonville Center
11:52AM 30.3089 -82.2911 139° Southeast 405 466 38,400 -1,740 Descending Jacksonville Center
11:53AM 30.2333 -82.1978 133° Southeast 394 453 36,300 -1,740 Descending Jacksonville Center
11:54AM 30.1369 -82.1336 150° Southeast 394 453 35,000 -900 Descending Jacksonville Center
11:55AM 30.0242 -82.1200 174° South 391 450 34,500 -600 Descending Jacksonville Center
11:56AM 29.9008 -82.1211 180° South 411 473 33,900 -1,560 Descending Jacksonville Center
11:57AM 29.7839 -82.1147 177° South 424 488 31,400 -2,520 Descending Jacksonville Center
11:58AM 29.6692 -82.1039 175° South 424 488 28,900 -2,400 Descending Jacksonville Center
11:59AM 29.5522 -82.0975 177° South 424 488 26,700 -1,920 Descending Jacksonville Center
12:00PM 29.4414 -82.0914 177° South 419 482 25,100 -1,620 Descending Jacksonville Center
12:01PM 29.3286 -82.0850 177° South 413 475 23,500 -1,620 Descending Jacksonville Center
12:02PM 29.2222 -82.0811 178° South 406 467 21,900 -1,620 Descending Jacksonville Center
12:03PM 29.1158 -82.0772 178° South 391 450 20,300 -1,500 Descending Jacksonville Center
12:04PM 29.0156 -82.0711 177° South 380 437 19,000 -1,260 Descending Jacksonville Center
12:05PM 28.9069 -82.0625 176° South 368 423 17,800 -1,200 Descending Jacksonville Center
12:06PM 28.8108 -82.0608 179° South 357 411 16,600 -1,200 Descending Jacksonville Center
12:07PM 28.6667 -82.0500 176° South 339 390 14,800 -1,200 Descending Tampa TRACON
12:08PM 28.5833 -82.0500 180° South 337 388 13,800 -1,200 Descending Tampa TRACON
12:09PM 28.4833 -82.0500 180° South 339 390 12,600 -1,200 Descending Tampa TRACON
12:10PM 28.4000 -82.0333 170° South 336 387 11,400 -840 Descending Tampa TRACON
12:11PM 28.3000 -82.0333 180° South 318 366 11,000 -240 Descending Tampa TRACON
12:12PM 28.2333 -82.0333 180° South 311 358 11,000  Level Tampa TRACON
12:13PM 28.1333 -82.0167 172° South 315 362 11,000  Level Tampa TRACON
12:14PM 28.0500 -82.0500 199° South 316 364 11,000 -360 Level Tampa TRACON
12:15PM 27.9833 -82.1000 214° Southwest 314 361 10,300 -1,380 Descending Tampa TRACON
12:16PM 27.9167 -82.1500 214° Southwest 271 312 8,300 -2,040 Descending Tampa TRACON
12:17PM 27.8500 -82.2000 214° Southwest 258 297 6,300 -1,200 Descending Tampa TRACON
12:18PM 27.8000 -82.2500 222° Southwest 238 274 6,000 -180 Descending Tampa TRACON
12:19PM 27.7500 -82.2833 211° Southwest 262 302 6,000 -420 Level Tampa TRACON
12:20PM 27.6833 -82.3500 222° Southwest 264 304 5,200 -960 Descending Tampa TRACON
12:21PM 27.6167 -82.3833 204° Southwest 244 281 4,000 -660 Descending Tampa TRACON
12:22PM 27.5667 -82.3833 180° South 220 253 4,000 -420 Level Tampa TRACON
12:23PM 27.4833 -82.3833 180° South 258 297 3,200 -660 Descending Tampa TRACON
12:24PM 27.4000 -82.3833 180° South 247 284 2,500 -420 Descending Tampa TRACON
12:25PM 27.3667 -82.4167 222° Southwest 202 232 2,500 -420 Level Tampa TRACON
12:26PM 27.3333 -82.4667 233° Southwest 174 200 1,800 -780 Descending Tampa TRACON
12:27PM 27.3500 -82.5000 299° West 127 146 1,100 -720 Descending Tampa TRACON
12:28PM 27.3833 -82.5333 318° Northwest 116 133 400 -660 Descending Tampa TRACON
12:30PM 27.3833 -82.5500 222° Southwest  Level FlightAware Approximate